sensor_id;sensor_type;location;lat;lon;timestamp;P1;durP1;ratioP1;P2;durP2;ratioP2
41333;SDS011;27078;46.428;6.256;2022-08-19T00:01:11;5.95;;;4.53;;
41333;SDS011;27078;46.428;6.256;2022-08-19T00:03:37;4.97;;;4.10;;
41333;SDS011;27078;46.428;6.256;2022-08-19T00:06:02;5.03;;;4.22;;
41333;SDS011;27078;46.428;6.256;2022-08-19T00:08:28;4.60;;;4.20;;
41333;SDS011;27078;46.428;6.256;2022-08-19T00:10:53;5.05;;;4.07;;
41333;SDS011;27078;46.428;6.256;2022-08-19T00:13:19;5.45;;;3.42;;
41333;SDS011;27078;46.428;6.256;2022-08-19T00:15:44;3.50;;;2.55;;
41333;SDS011;27078;46.428;6.256;2022-08-19T00:18:09;4.95;;;3.20;;
41333;SDS011;27078;46.428;6.256;2022-08-19T00:20:35;6.22;;;3.97;;
41333;SDS011;27078;46.428;6.256;2022-08-19T00:23:03;4.90;;;3.90;;
41333;SDS011;27078;46.428;6.256;2022-08-19T00:25:28;6.30;;;3.63;;
41333;SDS011;27078;46.428;6.256;2022-08-19T00:27:54;4.43;;;3.90;;
41333;SDS011;27078;46.428;6.256;2022-08-19T00:30:19;6.05;;;4.38;;
41333;SDS011;27078;46.428;6.256;2022-08-19T00:32:44;5.47;;;4.22;;
41333;SDS011;27078;46.428;6.256;2022-08-19T00:35:10;5.30;;;3.72;;
41333;SDS011;27078;46.428;6.256;2022-08-19T00:37:36;6.53;;;4.75;;
41333;SDS011;27078;46.428;6.256;2022-08-19T00:40:03;5.57;;;4.00;;
41333;SDS011;27078;46.428;6.256;2022-08-19T00:42:31;5.18;;;3.97;;
41333;SDS011;27078;46.428;6.256;2022-08-19T00:44:57;5.22;;;4.40;;
41333;SDS011;27078;46.428;6.256;2022-08-19T00:47:23;5.20;;;4.32;;
41333;SDS011;27078;46.428;6.256;2022-08-19T00:49:49;5.05;;;4.13;;
41333;SDS011;27078;46.428;6.256;2022-08-19T00:52:27;7.88;;;4.82;;
41333;SDS011;27078;46.428;6.256;2022-08-19T00:54:57;6.03;;;4.45;;
41333;SDS011;27078;46.428;6.256;2022-08-19T00:57:26;5.63;;;4.97;;
41333;SDS011;27078;46.428;6.256;2022-08-19T00:59:55;8.37;;;4.90;;
41333;SDS011;27078;46.428;6.256;2022-08-19T01:02:23;5.10;;;4.60;;
41333;SDS011;27078;46.428;6.256;2022-08-19T01:04:49;6.32;;;5.20;;
41333;SDS011;27078;46.428;6.256;2022-08-19T01:07:14;7.57;;;5.22;;
41333;SDS011;27078;46.428;6.256;2022-08-19T01:09:41;5.15;;;4.65;;
41333;SDS011;27078;46.428;6.256;2022-08-19T01:12:07;6.43;;;5.40;;
41333;SDS011;27078;46.428;6.256;2022-08-19T01:14:33;8.10;;;5.28;;
41333;SDS011;27078;46.428;6.256;2022-08-19T01:17:00;8.65;;;5.57;;
41333;SDS011;27078;46.428;6.256;2022-08-19T01:19:27;6.75;;;5.45;;
41333;SDS011;27078;46.428;6.256;2022-08-19T01:22:05;7.25;;;5.85;;
41333;SDS011;27078;46.428;6.256;2022-08-19T01:24:35;8.02;;;6.30;;
41333;SDS011;27078;46.428;6.256;2022-08-19T01:27:02;8.23;;;6.60;;
41333;SDS011;27078;46.428;6.256;2022-08-19T01:29:29;8.82;;;6.35;;
41333;SDS011;27078;46.428;6.256;2022-08-19T01:31:54;6.88;;;5.53;;
41333;SDS011;27078;46.428;6.256;2022-08-19T01:34:19;7.30;;;6.00;;
41333;SDS011;27078;46.428;6.256;2022-08-19T01:36:45;6.53;;;5.50;;
41333;SDS011;27078;46.428;6.256;2022-08-19T01:39:22;5.10;;;4.15;;
41333;SDS011;27078;46.428;6.256;2022-08-19T01:41:49;5.40;;;3.60;;
41333;SDS011;27078;46.428;6.256;2022-08-19T01:44:16;3.67;;;2.97;;
41333;SDS011;27078;46.428;6.256;2022-08-19T01:46:45;5.75;;;2.80;;
41333;SDS011;27078;46.428;6.256;2022-08-19T01:49:12;4.65;;;2.40;;
41333;SDS011;27078;46.428;6.256;2022-08-19T01:51:38;2.75;;;1.90;;
41333;SDS011;27078;46.428;6.256;2022-08-19T01:54:03;2.28;;;1.80;;
41333;SDS011;27078;46.428;6.256;2022-08-19T01:56:29;2.45;;;1.50;;
41333;SDS011;27078;46.428;6.256;2022-08-19T01:58:56;2.13;;;1.85;;
41333;SDS011;27078;46.428;6.256;2022-08-19T02:01:25;2.65;;;1.45;;
41333;SDS011;27078;46.428;6.256;2022-08-19T02:03:50;2.00;;;1.50;;
41333;SDS011;27078;46.428;6.256;2022-08-19T02:06:18;2.50;;;1.50;;
41333;SDS011;27078;46.428;6.256;2022-08-19T02:08:43;3.58;;;1.63;;
41333;SDS011;27078;46.428;6.256;2022-08-19T02:11:18;5.57;;;1.67;;
41333;SDS011;27078;46.428;6.256;2022-08-19T02:13:45;3.58;;;2.55;;
41333;SDS011;27078;46.428;6.256;2022-08-19T02:16:11;3.55;;;2.00;;
41333;SDS011;27078;46.428;6.256;2022-08-19T02:18:36;3.50;;;2.10;;
41333;SDS011;27078;46.428;6.256;2022-08-19T02:21:01;3.88;;;1.90;;
41333;SDS011;27078;46.428;6.256;2022-08-19T02:23:27;4.55;;;1.90;;
41333;SDS011;27078;46.428;6.256;2022-08-19T02:25:52;4.13;;;1.80;;
41333;SDS011;27078;46.428;6.256;2022-08-19T02:28:17;3.92;;;1.50;;
41333;SDS011;27078;46.428;6.256;2022-08-19T02:30:43;3.53;;;1.52;;
41333;SDS011;27078;46.428;6.256;2022-08-19T02:33:08;3.35;;;1.67;;
41333;SDS011;27078;46.428;6.256;2022-08-19T02:35:34;3.42;;;1.80;;
41333;SDS011;27078;46.428;6.256;2022-08-19T02:37:59;3.50;;;1.90;;
41333;SDS011;27078;46.428;6.256;2022-08-19T02:40:50;4.80;;;1.85;;
41333;SDS011;27078;46.428;6.256;2022-08-19T02:43:17;4.45;;;1.77;;
41333;SDS011;27078;46.428;6.256;2022-08-19T02:45:45;2.83;;;1.52;;
41333;SDS011;27078;46.428;6.256;2022-08-19T02:48:13;4.00;;;1.80;;
41333;SDS011;27078;46.428;6.256;2022-08-19T02:50:42;2.95;;;1.60;;
41333;SDS011;27078;46.428;6.256;2022-08-19T02:53:08;2.92;;;1.60;;
41333;SDS011;27078;46.428;6.256;2022-08-19T02:55:33;2.85;;;1.55;;
41333;SDS011;27078;46.428;6.256;2022-08-19T02:57:59;3.60;;;1.60;;
41333;SDS011;27078;46.428;6.256;2022-08-19T03:00:25;5.20;;;1.80;;
41333;SDS011;27078;46.428;6.256;2022-08-19T03:02:51;2.58;;;1.45;;
41333;SDS011;27078;46.428;6.256;2022-08-19T03:12:50;2.80;;;1.40;;
41333;SDS011;27078;46.428;6.256;2022-08-19T03:15:15;3.90;;;1.42;;
41333;SDS011;27078;46.428;6.256;2022-08-19T03:17:41;3.17;;;1.60;;
41333;SDS011;27078;46.428;6.256;2022-08-19T03:20:06;4.38;;;1.50;;
41333;SDS011;27078;46.428;6.256;2022-08-19T03:22:32;2.95;;;1.50;;
41333;SDS011;27078;46.428;6.256;2022-08-19T03:24:57;4.55;;;1.50;;
41333;SDS011;27078;46.428;6.256;2022-08-19T03:27:24;4.18;;;1.45;;
41333;SDS011;27078;46.428;6.256;2022-08-19T03:29:49;3.17;;;1.50;;
41333;SDS011;27078;46.428;6.256;2022-08-19T03:32:15;2.90;;;1.40;;
41333;SDS011;27078;46.428;6.256;2022-08-19T03:34:40;4.32;;;1.63;;
41333;SDS011;27078;46.428;6.256;2022-08-19T03:37:07;4.78;;;1.77;;
41333;SDS011;27078;46.428;6.256;2022-08-19T03:39:35;3.90;;;1.60;;
41333;SDS011;27078;46.428;6.256;2022-08-19T03:42:02;3.67;;;1.42;;
41333;SDS011;27078;46.428;6.256;2022-08-19T03:44:28;2.80;;;1.73;;
41333;SDS011;27078;46.428;6.256;2022-08-19T03:46:56;4.40;;;1.60;;
41333;SDS011;27078;46.428;6.256;2022-08-19T03:49:23;4.30;;;1.50;;
41333;SDS011;27078;46.428;6.256;2022-08-19T03:51:52;3.33;;;1.50;;
41333;SDS011;27078;46.428;6.256;2022-08-19T03:54:20;3.33;;;1.77;;
41333;SDS011;27078;46.428;6.256;2022-08-19T03:56:48;2.88;;;1.70;;
41333;SDS011;27078;46.428;6.256;2022-08-19T03:59:17;5.57;;;1.77;;
41333;SDS011;27078;46.428;6.256;2022-08-19T04:01:44;2.72;;;1.67;;
41333;SDS011;27078;46.428;6.256;2022-08-19T04:04:10;2.70;;;1.98;;
41333;SDS011;27078;46.428;6.256;2022-08-19T04:06:37;3.35;;;1.80;;
41333;SDS011;27078;46.428;6.256;2022-08-19T04:09:04;2.35;;;1.73;;
41333;SDS011;27078;46.428;6.256;2022-08-19T04:11:34;3.33;;;1.85;;
41333;SDS011;27078;46.428;6.256;2022-08-19T04:14:06;4.18;;;1.90;;
41333;SDS011;27078;46.428;6.256;2022-08-19T04:16:32;3.25;;;1.65;;
41333;SDS011;27078;46.428;6.256;2022-08-19T04:19:00;3.40;;;2.20;;
41333;SDS011;27078;46.428;6.256;2022-08-19T04:21:27;6.38;;;2.20;;
41333;SDS011;27078;46.428;6.256;2022-08-19T04:23:53;4.22;;;2.00;;
41333;SDS011;27078;46.428;6.256;2022-08-19T04:26:21;4.15;;;2.20;;
41333;SDS011;27078;46.428;6.256;2022-08-19T04:28:52;3.70;;;2.13;;
41333;SDS011;27078;46.428;6.256;2022-08-19T04:31:20;3.80;;;2.08;;
41333;SDS011;27078;46.428;6.256;2022-08-19T04:33:47;4.82;;;2.50;;
41333;SDS011;27078;46.428;6.256;2022-08-19T04:36:20;4.40;;;2.45;;
41333;SDS011;27078;46.428;6.256;2022-08-19T04:38:48;5.05;;;2.47;;
41333;SDS011;27078;46.428;6.256;2022-08-19T04:41:14;3.30;;;2.30;;
41333;SDS011;27078;46.428;6.256;2022-08-19T04:43:58;3.88;;;2.08;;
41333;SDS011;27078;46.428;6.256;2022-08-19T04:46:23;4.60;;;1.90;;
41333;SDS011;27078;46.428;6.256;2022-08-19T04:48:48;2.92;;;1.88;;
41333;SDS011;27078;46.428;6.256;2022-08-19T04:51:14;3.13;;;1.63;;
41333;SDS011;27078;46.428;6.256;2022-08-19T04:53:40;2.78;;;1.60;;
41333;SDS011;27078;46.428;6.256;2022-08-19T04:58:32;2.20;;;1.50;;
41333;SDS011;27078;46.428;6.256;2022-08-19T05:00:58;2.72;;;1.40;;
41333;SDS011;27078;46.428;6.256;2022-08-19T05:03:25;4.80;;;1.70;;
41333;SDS011;27078;46.428;6.256;2022-08-19T05:05:51;3.60;;;1.70;;
41333;SDS011;27078;46.428;6.256;2022-08-19T05:08:17;5.80;;;1.60;;
41333;SDS011;27078;46.428;6.256;2022-08-19T05:10:46;2.88;;;1.60;;
41333;SDS011;27078;46.428;6.256;2022-08-19T05:13:13;3.45;;;1.77;;
41333;SDS011;27078;46.428;6.256;2022-08-19T05:15:41;2.20;;;1.50;;
41333;SDS011;27078;46.428;6.256;2022-08-19T05:18:07;2.78;;;1.92;;
41333;SDS011;27078;46.428;6.256;2022-08-19T05:20:51;4.32;;;1.40;;
41333;SDS011;27078;46.428;6.256;2022-08-19T05:23:35;4.25;;;1.60;;
41333;SDS011;27078;46.428;6.256;2022-08-19T05:26:00;2.75;;;1.70;;
41333;SDS011;27078;46.428;6.256;2022-08-19T05:28:26;2.85;;;1.70;;
41333;SDS011;27078;46.428;6.256;2022-08-19T05:30:52;5.40;;;1.98;;
41333;SDS011;27078;46.428;6.256;2022-08-19T05:33:20;3.75;;;1.80;;
41333;SDS011;27078;46.428;6.256;2022-08-19T05:35:46;4.80;;;1.85;;
41333;SDS011;27078;46.428;6.256;2022-08-19T05:38:14;2.42;;;1.90;;
41333;SDS011;27078;46.428;6.256;2022-08-19T05:40:41;3.25;;;1.98;;
41333;SDS011;27078;46.428;6.256;2022-08-19T05:43:07;4.00;;;1.70;;
41333;SDS011;27078;46.428;6.256;2022-08-19T05:45:37;3.47;;;1.83;;
41333;SDS011;27078;46.428;6.256;2022-08-19T05:48:04;4.20;;;2.13;;
41333;SDS011;27078;46.428;6.256;2022-08-19T05:50:30;2.70;;;1.67;;
41333;SDS011;27078;46.428;6.256;2022-08-19T05:52:55;3.08;;;1.73;;
41333;SDS011;27078;46.428;6.256;2022-08-19T05:55:21;3.72;;;2.00;;
41333;SDS011;27078;46.428;6.256;2022-08-19T05:57:47;2.40;;;1.75;;
41333;SDS011;27078;46.428;6.256;2022-08-19T06:00:13;3.47;;;2.08;;
41333;SDS011;27078;46.428;6.256;2022-08-19T06:02:39;2.65;;;1.80;;
41333;SDS011;27078;46.428;6.256;2022-08-19T06:05:05;2.63;;;1.70;;
41333;SDS011;27078;46.428;6.256;2022-08-19T06:07:37;3.33;;;1.80;;
41333;SDS011;27078;46.428;6.256;2022-08-19T06:10:04;3.75;;;1.67;;
41333;SDS011;27078;46.428;6.256;2022-08-19T06:12:32;3.80;;;1.95;;
41333;SDS011;27078;46.428;6.256;2022-08-19T06:15:03;5.03;;;2.08;;
41333;SDS011;27078;46.428;6.256;2022-08-19T06:17:31;2.83;;;1.92;;
41333;SDS011;27078;46.428;6.256;2022-08-19T06:19:57;3.22;;;2.10;;
41333;SDS011;27078;46.428;6.256;2022-08-19T06:22:23;3.72;;;2.00;;
41333;SDS011;27078;46.428;6.256;2022-08-19T06:24:48;3.70;;;1.90;;
41333;SDS011;27078;46.428;6.256;2022-08-19T06:27:17;3.92;;;2.08;;
41333;SDS011;27078;46.428;6.256;2022-08-19T06:29:43;3.15;;;2.10;;
41333;SDS011;27078;46.428;6.256;2022-08-19T06:32:08;3.13;;;2.38;;
41333;SDS011;27078;46.428;6.256;2022-08-19T06:34:34;4.20;;;2.40;;
41333;SDS011;27078;46.428;6.256;2022-08-19T06:37:00;2.92;;;2.17;;
41333;SDS011;27078;46.428;6.256;2022-08-19T06:39:28;2.85;;;2.33;;
41333;SDS011;27078;46.428;6.256;2022-08-19T06:41:57;4.05;;;2.85;;
41333;SDS011;27078;46.428;6.256;2022-08-19T06:44:25;4.55;;;2.90;;
41333;SDS011;27078;46.428;6.256;2022-08-19T06:46:53;4.72;;;3.40;;
41333;SDS011;27078;46.428;6.256;2022-08-19T06:49:19;3.72;;;3.30;;
41333;SDS011;27078;46.428;6.256;2022-08-19T06:51:46;7.00;;;3.80;;
41333;SDS011;27078;46.428;6.256;2022-08-19T06:54:13;5.05;;;3.85;;
41333;SDS011;27078;46.428;6.256;2022-08-19T06:56:39;5.20;;;4.30;;
41333;SDS011;27078;46.428;6.256;2022-08-19T06:59:07;6.50;;;4.50;;
41333;SDS011;27078;46.428;6.256;2022-08-19T07:01:35;5.75;;;4.47;;
41333;SDS011;27078;46.428;6.256;2022-08-19T07:04:10;6.75;;;4.82;;
41333;SDS011;27078;46.428;6.256;2022-08-19T07:06:36;6.28;;;4.90;;
41333;SDS011;27078;46.428;6.256;2022-08-19T07:09:05;6.60;;;4.55;;
41333;SDS011;27078;46.428;6.256;2022-08-19T07:11:31;6.05;;;4.75;;
41333;SDS011;27078;46.428;6.256;2022-08-19T07:13:57;8.95;;;5.60;;
41333;SDS011;27078;46.428;6.256;2022-08-19T07:16:23;7.82;;;5.15;;
41333;SDS011;27078;46.428;6.256;2022-08-19T07:18:49;7.82;;;5.20;;
41333;SDS011;27078;46.428;6.256;2022-08-19T07:21:23;6.00;;;5.03;;
41333;SDS011;27078;46.428;6.256;2022-08-19T07:23:54;6.40;;;4.90;;
41333;SDS011;27078;46.428;6.256;2022-08-19T07:26:25;6.80;;;4.97;;
41333;SDS011;27078;46.428;6.256;2022-08-19T07:28:52;7.07;;;5.13;;
41333;SDS011;27078;46.428;6.256;2022-08-19T07:31:20;6.60;;;4.93;;
41333;SDS011;27078;46.428;6.256;2022-08-19T07:33:47;6.60;;;5.30;;
41333;SDS011;27078;46.428;6.256;2022-08-19T07:36:16;7.63;;;6.03;;
41333;SDS011;27078;46.428;6.256;2022-08-19T07:38:44;9.55;;;6.10;;
41333;SDS011;27078;46.428;6.256;2022-08-19T07:41:13;8.88;;;6.30;;
41333;SDS011;27078;46.428;6.256;2022-08-19T07:43:40;8.57;;;6.47;;
41333;SDS011;27078;46.428;6.256;2022-08-19T07:46:08;7.90;;;6.25;;
41333;SDS011;27078;46.428;6.256;2022-08-19T07:48:34;7.82;;;5.55;;
41333;SDS011;27078;46.428;6.256;2022-08-19T07:51:00;7.93;;;6.03;;
41333;SDS011;27078;46.428;6.256;2022-08-19T07:53:28;6.68;;;5.72;;
41333;SDS011;27078;46.428;6.256;2022-08-19T07:55:55;6.95;;;5.35;;
41333;SDS011;27078;46.428;6.256;2022-08-19T07:58:25;6.68;;;5.55;;
41333;SDS011;27078;46.428;6.256;2022-08-19T08:00:50;7.28;;;5.95;;
41333;SDS011;27078;46.428;6.256;2022-08-19T08:03:18;7.65;;;5.38;;
41333;SDS011;27078;46.428;6.256;2022-08-19T08:06:06;7.55;;;6.15;;
41333;SDS011;27078;46.428;6.256;2022-08-19T08:08:50;6.72;;;5.30;;
41333;SDS011;27078;46.428;6.256;2022-08-19T08:11:34;6.40;;;4.97;;
41333;SDS011;27078;46.428;6.256;2022-08-19T08:14:00;5.85;;;4.78;;
41333;SDS011;27078;46.428;6.256;2022-08-19T08:16:26;6.38;;;5.07;;
41333;SDS011;27078;46.428;6.256;2022-08-19T08:18:54;7.97;;;5.30;;
41333;SDS011;27078;46.428;6.256;2022-08-19T08:21:20;9.43;;;5.78;;
41333;SDS011;27078;46.428;6.256;2022-08-19T08:23:45;7.97;;;6.63;;
41333;SDS011;27078;46.428;6.256;2022-08-19T08:26:11;8.32;;;7.25;;
41333;SDS011;27078;46.428;6.256;2022-08-19T08:28:40;7.32;;;5.82;;
41333;SDS011;27078;46.428;6.256;2022-08-19T08:31:05;6.22;;;5.38;;
41333;SDS011;27078;46.428;6.256;2022-08-19T08:33:31;9.02;;;5.47;;
41333;SDS011;27078;46.428;6.256;2022-08-19T08:35:56;8.32;;;5.47;;
41333;SDS011;27078;46.428;6.256;2022-08-19T08:38:21;8.77;;;5.30;;
41333;SDS011;27078;46.428;6.256;2022-08-19T08:40:50;6.47;;;4.68;;
41333;SDS011;27078;46.428;6.256;2022-08-19T08:43:31;6.95;;;5.40;;
41333;SDS011;27078;46.428;6.256;2022-08-19T08:46:01;6.30;;;4.68;;
41333;SDS011;27078;46.428;6.256;2022-08-19T08:48:37;7.95;;;5.15;;
41333;SDS011;27078;46.428;6.256;2022-08-19T08:51:11;5.88;;;4.55;;
41333;SDS011;27078;46.428;6.256;2022-08-19T08:53:41;5.47;;;4.50;;
41333;SDS011;27078;46.428;6.256;2022-08-19T08:56:10;6.00;;;4.32;;
41333;SDS011;27078;46.428;6.256;2022-08-19T09:01:34;4.75;;;4.03;;
41333;SDS011;27078;46.428;6.256;2022-08-19T09:04:02;5.40;;;4.53;;
41333;SDS011;27078;46.428;6.256;2022-08-19T09:06:40;5.47;;;4.40;;
41333;SDS011;27078;46.428;6.256;2022-08-19T09:09:17;5.95;;;4.40;;
41333;SDS011;27078;46.428;6.256;2022-08-19T09:11:50;5.53;;;4.13;;
41333;SDS011;27078;46.428;6.256;2022-08-19T09:17:14;5.35;;;4.10;;
41333;SDS011;27078;46.428;6.256;2022-08-19T09:19:59;5.05;;;3.90;;
41333;SDS011;27078;46.428;6.256;2022-08-19T09:22:33;5.68;;;4.20;;
41333;SDS011;27078;46.428;6.256;2022-08-19T09:24:59;6.00;;;4.35;;
41333;SDS011;27078;46.428;6.256;2022-08-19T09:27:25;5.65;;;4.28;;
41333;SDS011;27078;46.428;6.256;2022-08-19T09:29:52;5.85;;;4.68;;
41333;SDS011;27078;46.428;6.256;2022-08-19T09:32:18;6.63;;;5.63;;
41333;SDS011;27078;46.428;6.256;2022-08-19T09:34:44;6.53;;;5.25;;
41333;SDS011;27078;46.428;6.256;2022-08-19T09:37:10;7.72;;;5.05;;
41333;SDS011;27078;46.428;6.256;2022-08-19T09:39:37;5.30;;;4.60;;
41333;SDS011;27078;46.428;6.256;2022-08-19T09:42:05;12.00;;;7.90;;
41333;SDS011;27078;46.428;6.256;2022-08-19T09:44:36;8.05;;;6.20;;
41333;SDS011;27078;46.428;6.256;2022-08-19T09:47:02;5.15;;;4.35;;
41333;SDS011;27078;46.428;6.256;2022-08-19T09:49:29;6.40;;;4.78;;
41333;SDS011;27078;46.428;6.256;2022-08-19T09:51:54;7.40;;;5.88;;
41333;SDS011;27078;46.428;6.256;2022-08-19T09:54:20;6.53;;;5.43;;
41333;SDS011;27078;46.428;6.256;2022-08-19T09:56:46;6.60;;;5.18;;
41333;SDS011;27078;46.428;6.256;2022-08-19T09:59:11;24.60;;;19.42;;
41333;SDS011;27078;46.428;6.256;2022-08-19T10:01:37;27.98;;;25.00;;
41333;SDS011;27078;46.428;6.256;2022-08-19T10:04:03;10.18;;;8.50;;
41333;SDS011;27078;46.428;6.256;2022-08-19T10:06:33;6.93;;;5.45;;
41333;SDS011;27078;46.428;6.256;2022-08-19T10:09:01;8.25;;;5.47;;
41333;SDS011;27078;46.428;6.256;2022-08-19T10:11:30;4.85;;;3.90;;
41333;SDS011;27078;46.428;6.256;2022-08-19T10:16:31;5.07;;;4.10;;
41333;SDS011;27078;46.428;6.256;2022-08-19T10:18:57;4.88;;;4.03;;
41333;SDS011;27078;46.428;6.256;2022-08-19T10:21:24;5.18;;;4.00;;
41333;SDS011;27078;46.428;6.256;2022-08-19T10:23:54;5.45;;;3.92;;
41333;SDS011;27078;46.428;6.256;2022-08-19T10:26:23;5.80;;;4.65;;
41333;SDS011;27078;46.428;6.256;2022-08-19T10:28:50;6.25;;;4.35;;
41333;SDS011;27078;46.428;6.256;2022-08-19T10:31:20;5.20;;;4.70;;
41333;SDS011;27078;46.428;6.256;2022-08-19T10:33:48;6.72;;;4.93;;
41333;SDS011;27078;46.428;6.256;2022-08-19T10:36:17;5.70;;;4.75;;
41333;SDS011;27078;46.428;6.256;2022-08-19T10:38:45;5.20;;;4.40;;
41333;SDS011;27078;46.428;6.256;2022-08-19T10:41:16;6.20;;;4.82;;
41333;SDS011;27078;46.428;6.256;2022-08-19T10:43:43;7.05;;;5.20;;
41333;SDS011;27078;46.428;6.256;2022-08-19T10:46:11;6.05;;;4.97;;
41333;SDS011;27078;46.428;6.256;2022-08-19T10:48:38;7.18;;;5.07;;
41333;SDS011;27078;46.428;6.256;2022-08-19T10:51:05;6.15;;;5.10;;
41333;SDS011;27078;46.428;6.256;2022-08-19T10:53:49;6.70;;;5.28;;
41333;SDS011;27078;46.428;6.256;2022-08-19T10:56:15;6.63;;;5.57;;
41333;SDS011;27078;46.428;6.256;2022-08-19T10:58:59;5.97;;;5.38;;
41333;SDS011;27078;46.428;6.256;2022-08-19T11:01:25;5.70;;;5.13;;
41333;SDS011;27078;46.428;6.256;2022-08-19T11:03:52;6.43;;;5.50;;
41333;SDS011;27078;46.428;6.256;2022-08-19T11:06:17;6.38;;;5.53;;
41333;SDS011;27078;46.428;6.256;2022-08-19T11:08:44;7.22;;;5.70;;
41333;SDS011;27078;46.428;6.256;2022-08-19T11:11:10;7.70;;;5.85;;
41333;SDS011;27078;46.428;6.256;2022-08-19T11:13:38;8.13;;;5.80;;
41333;SDS011;27078;46.428;6.256;2022-08-19T11:16:09;5.63;;;4.90;;
41333;SDS011;27078;46.428;6.256;2022-08-19T11:18:40;7.10;;;5.55;;
41333;SDS011;27078;46.428;6.256;2022-08-19T11:23:42;6.25;;;5.03;;
41333;SDS011;27078;46.428;6.256;2022-08-19T11:26:08;5.00;;;4.40;;
41333;SDS011;27078;46.428;6.256;2022-08-19T11:28:35;6.72;;;5.15;;
41333;SDS011;27078;46.428;6.256;2022-08-19T11:31:01;6.80;;;5.50;;
41333;SDS011;27078;46.428;6.256;2022-08-19T11:33:28;5.25;;;4.60;;
41333;SDS011;27078;46.428;6.256;2022-08-19T11:35:54;6.05;;;5.15;;
41333;SDS011;27078;46.428;6.256;2022-08-19T11:38:22;5.93;;;5.20;;
41333;SDS011;27078;46.428;6.256;2022-08-19T11:40:54;6.15;;;5.10;;
41333;SDS011;27078;46.428;6.256;2022-08-19T11:43:23;5.95;;;5.13;;
41333;SDS011;27078;46.428;6.256;2022-08-19T11:45:49;7.60;;;5.35;;
41333;SDS011;27078;46.428;6.256;2022-08-19T11:48:15;5.90;;;5.30;;
41333;SDS011;27078;46.428;6.256;2022-08-19T11:50:40;5.35;;;4.80;;
41333;SDS011;27078;46.428;6.256;2022-08-19T11:53:07;7.30;;;5.78;;
41333;SDS011;27078;46.428;6.256;2022-08-19T11:55:32;5.93;;;5.32;;
41333;SDS011;27078;46.428;6.256;2022-08-19T11:58:01;5.97;;;5.00;;
41333;SDS011;27078;46.428;6.256;2022-08-19T12:00:26;6.47;;;5.18;;
41333;SDS011;27078;46.428;6.256;2022-08-19T12:02:51;5.40;;;4.90;;
41333;SDS011;27078;46.428;6.256;2022-08-19T12:05:17;6.82;;;5.35;;
41333;SDS011;27078;46.428;6.256;2022-08-19T12:07:42;6.15;;;5.20;;
41333;SDS011;27078;46.428;6.256;2022-08-19T12:10:08;6.05;;;5.18;;
41333;SDS011;27078;46.428;6.256;2022-08-19T12:12:34;6.85;;;6.07;;
41333;SDS011;27078;46.428;6.256;2022-08-19T12:14:59;7.60;;;5.68;;
41333;SDS011;27078;46.428;6.256;2022-08-19T12:17:25;6.22;;;5.57;;
41333;SDS011;27078;46.428;6.256;2022-08-19T12:19:52;6.32;;;5.45;;
41333;SDS011;27078;46.428;6.256;2022-08-19T12:22:18;7.40;;;5.85;;
41333;SDS011;27078;46.428;6.256;2022-08-19T12:24:44;6.30;;;5.60;;
41333;SDS011;27078;46.428;6.256;2022-08-19T12:27:09;6.25;;;5.40;;
41333;SDS011;27078;46.428;6.256;2022-08-19T12:29:35;6.20;;;5.60;;
41333;SDS011;27078;46.428;6.256;2022-08-19T12:32:00;6.43;;;5.68;;
41333;SDS011;27078;46.428;6.256;2022-08-19T12:34:30;6.50;;;5.82;;
41333;SDS011;27078;46.428;6.256;2022-08-19T12:36:58;7.00;;;6.00;;
41333;SDS011;27078;46.428;6.256;2022-08-19T12:39:26;6.40;;;5.63;;
41333;SDS011;27078;46.428;6.256;2022-08-19T12:41:51;6.05;;;5.32;;
41333;SDS011;27078;46.428;6.256;2022-08-19T12:44:17;7.63;;;5.70;;
41333;SDS011;27078;46.428;6.256;2022-08-19T12:46:43;6.53;;;5.80;;
41333;SDS011;27078;46.428;6.256;2022-08-19T12:49:08;6.32;;;5.47;;
41333;SDS011;27078;46.428;6.256;2022-08-19T12:51:34;7.07;;;6.28;;
41333;SDS011;27078;46.428;6.256;2022-08-19T12:54:00;7.90;;;5.93;;
41333;SDS011;27078;46.428;6.256;2022-08-19T12:56:26;7.18;;;5.60;;
41333;SDS011;27078;46.428;6.256;2022-08-19T12:58:52;6.65;;;5.30;;
41333;SDS011;27078;46.428;6.256;2022-08-19T13:01:18;7.50;;;6.53;;
41333;SDS011;27078;46.428;6.256;2022-08-19T13:03:45;6.93;;;6.22;;
41333;SDS011;27078;46.428;6.256;2022-08-19T13:06:11;6.75;;;5.57;;
41333;SDS011;27078;46.428;6.256;2022-08-19T13:08:37;6.43;;;5.78;;
41333;SDS011;27078;46.428;6.256;2022-08-19T13:11:07;6.85;;;5.80;;
41333;SDS011;27078;46.428;6.256;2022-08-19T13:13:36;7.22;;;6.20;;
41333;SDS011;27078;46.428;6.256;2022-08-19T13:16:06;7.15;;;6.25;;
41333;SDS011;27078;46.428;6.256;2022-08-19T13:18:33;7.95;;;6.50;;
41333;SDS011;27078;46.428;6.256;2022-08-19T13:21:02;7.07;;;6.07;;
41333;SDS011;27078;46.428;6.256;2022-08-19T13:23:29;7.20;;;6.15;;
41333;SDS011;27078;46.428;6.256;2022-08-19T13:25:56;7.80;;;6.35;;
41333;SDS011;27078;46.428;6.256;2022-08-19T13:28:22;7.57;;;6.75;;
41333;SDS011;27078;46.428;6.256;2022-08-19T13:30:48;8.82;;;6.47;;
41333;SDS011;27078;46.428;6.256;2022-08-19T13:33:32;7.45;;;6.60;;
41333;SDS011;27078;46.428;6.256;2022-08-19T13:35:58;7.88;;;7.07;;
41333;SDS011;27078;46.428;6.256;2022-08-19T13:48:43;7.55;;;6.00;;
41333;SDS011;27078;46.428;6.256;2022-08-19T13:51:09;8.27;;;7.07;;
41333;SDS011;27078;46.428;6.256;2022-08-19T13:53:35;8.68;;;7.10;;
41333;SDS011;27078;46.428;6.256;2022-08-19T13:56:05;7.95;;;7.07;;
41333;SDS011;27078;46.428;6.256;2022-08-19T13:58:31;8.13;;;6.60;;
41333;SDS011;27078;46.428;6.256;2022-08-19T14:00:57;9.82;;;8.23;;
41333;SDS011;27078;46.428;6.256;2022-08-19T14:03:24;10.27;;;7.28;;
41333;SDS011;27078;46.428;6.256;2022-08-19T14:05:49;7.93;;;7.13;;
41333;SDS011;27078;46.428;6.256;2022-08-19T14:08:15;7.93;;;7.13;;
41333;SDS011;27078;46.428;6.256;2022-08-19T14:10:40;8.35;;;6.82;;
41333;SDS011;27078;46.428;6.256;2022-08-19T14:13:07;8.82;;;7.20;;
41333;SDS011;27078;46.428;6.256;2022-08-19T14:15:33;8.75;;;7.45;;
41333;SDS011;27078;46.428;6.256;2022-08-19T14:17:58;9.15;;;7.68;;
41333;SDS011;27078;46.428;6.256;2022-08-19T14:20:24;8.80;;;6.82;;
41333;SDS011;27078;46.428;6.256;2022-08-19T14:22:50;9.57;;;7.55;;
41333;SDS011;27078;46.428;6.256;2022-08-19T14:25:17;7.50;;;6.70;;
41333;SDS011;27078;46.428;6.256;2022-08-19T14:27:44;9.50;;;7.13;;
41333;SDS011;27078;46.428;6.256;2022-08-19T14:30:11;9.98;;;7.43;;
41333;SDS011;27078;46.428;6.256;2022-08-19T14:32:39;9.75;;;7.90;;
41333;SDS011;27078;46.428;6.256;2022-08-19T14:35:05;9.68;;;7.93;;
41333;SDS011;27078;46.428;6.256;2022-08-19T14:37:32;8.45;;;7.10;;
41333;SDS011;27078;46.428;6.256;2022-08-19T14:39:59;9.68;;;8.23;;
41333;SDS011;27078;46.428;6.256;2022-08-19T14:42:24;9.25;;;7.75;;
41333;SDS011;27078;46.428;6.256;2022-08-19T14:44:49;9.32;;;7.88;;
41333;SDS011;27078;46.428;6.256;2022-08-19T14:47:15;8.40;;;7.50;;
41333;SDS011;27078;46.428;6.256;2022-08-19T14:49:40;10.00;;;7.82;;
41333;SDS011;27078;46.428;6.256;2022-08-19T14:52:05;10.90;;;8.27;;
41333;SDS011;27078;46.428;6.256;2022-08-19T14:54:31;10.48;;;8.35;;
41333;SDS011;27078;46.428;6.256;2022-08-19T14:56:56;9.77;;;7.93;;
41333;SDS011;27078;46.428;6.256;2022-08-19T14:59:22;10.90;;;8.10;;
41333;SDS011;27078;46.428;6.256;2022-08-19T15:01:47;8.82;;;7.75;;
41333;SDS011;27078;46.428;6.256;2022-08-19T15:04:12;9.40;;;7.97;;
41333;SDS011;27078;46.428;6.256;2022-08-19T15:06:38;9.10;;;7.85;;
41333;SDS011;27078;46.428;6.256;2022-08-19T15:09:04;10.18;;;7.75;;
41333;SDS011;27078;46.428;6.256;2022-08-19T15:11:30;9.35;;;8.00;;
41333;SDS011;27078;46.428;6.256;2022-08-19T15:13:57;10.50;;;8.40;;
41333;SDS011;27078;46.428;6.256;2022-08-19T15:16:23;8.05;;;7.25;;
41333;SDS011;27078;46.428;6.256;2022-08-19T15:18:51;9.43;;;7.65;;
41333;SDS011;27078;46.428;6.256;2022-08-19T15:21:22;8.57;;;7.67;;